createdAt,value
2018-03-19T00:02:19.039Z,-0.34
2018-03-19T00:04:48.202Z,-0.19
2018-03-19T00:07:16.720Z,-0.21
2018-03-19T00:09:45.075Z,-0.30
2018-03-19T00:12:13.436Z,-0.30
2018-03-19T00:14:41.782Z,-0.19
2018-03-19T00:17:10.673Z,-0.20
2018-03-19T00:19:38.949Z,-0.22
2018-03-19T00:22:07.212Z,-0.39
2018-03-19T00:24:35.466Z,-0.24
2018-03-19T00:27:03.801Z,-0.16
2018-03-19T00:29:32.188Z,-0.31
2018-03-19T00:32:00.632Z,-0.29
2018-03-19T00:34:28.926Z,-0.36
2018-03-19T00:36:57.212Z,-0.33
2018-03-19T00:39:25.523Z,-0.35
2018-03-19T00:41:54.564Z,-0.52
2018-03-19T00:44:22.860Z,-0.38
2018-03-19T00:46:51.242Z,-0.32
2018-03-19T00:49:20.292Z,-0.29
2018-03-19T00:51:48.571Z,-0.33
2018-03-19T00:54:16.924Z,-0.35
2018-03-19T00:56:45.961Z,-0.25
2018-03-19T00:59:14.242Z,-0.40
2018-03-19T01:01:42.541Z,-0.53
2018-03-19T01:04:11.627Z,-0.40
2018-03-19T01:06:39.955Z,-0.42
2018-03-19T01:09:08.236Z,-0.43
2018-03-19T01:11:36.609Z,-0.34
2018-03-19T01:14:04.867Z,-0.39
2018-03-19T01:16:33.172Z,-0.43
2018-03-19T01:19:01.497Z,-0.43
2018-03-19T01:21:29.781Z,-0.50
2018-03-19T01:23:58.823Z,-0.43
2018-03-19T01:26:27.091Z,-0.41
2018-03-19T01:28:55.373Z,-0.34
2018-03-19T01:31:23.661Z,-0.58
2018-03-19T01:33:51.940Z,-0.61
2018-03-19T01:36:20.274Z,-0.55
2018-03-19T01:38:48.555Z,-0.47
2018-03-19T01:41:16.823Z,-0.43
2018-03-19T01:43:45.134Z,-0.41
2018-03-19T01:46:13.394Z,-0.46
2018-03-19T01:48:41.719Z,-0.46
2018-03-19T01:51:10.789Z,-0.48
2018-03-19T01:53:39.112Z,-0.52
2018-03-19T01:56:07.420Z,-0.56
2018-03-19T01:58:35.706Z,-0.56
2018-03-19T02:01:04.039Z,-0.55
2018-03-19T02:03:33.069Z,-0.49
2018-03-19T02:06:01.343Z,-0.57
2018-03-19T02:08:29.629Z,-0.59
2018-03-19T02:10:57.979Z,-0.57
2018-03-19T02:13:26.325Z,-0.43
2018-03-19T02:15:54.630Z,-0.43
2018-03-19T02:18:23.199Z,-0.46
2018-03-19T02:20:51.701Z,-0.57
2018-03-19T02:23:20.190Z,-0.46
2018-03-19T02:25:48.549Z,-0.48
2018-03-19T02:28:16.823Z,-0.47
2018-03-19T02:30:45.301Z,-0.45
2018-03-19T02:33:13.585Z,-0.39
2018-03-19T02:35:41.883Z,-0.39
2018-03-19T02:38:10.141Z,-0.46
2018-03-19T02:40:38.494Z,-0.47
2018-03-19T02:43:06.792Z,-0.38
2018-03-19T02:45:35.069Z,-0.56
2018-03-19T02:48:03.346Z,-0.47
2018-03-19T02:50:32.243Z,-0.49
2018-03-19T02:53:00.514Z,-0.65
2018-03-19T02:55:28.793Z,-0.61
2018-03-19T02:57:57.867Z,-0.59
2018-03-19T03:00:26.166Z,-0.57
2018-03-19T03:02:54.545Z,-0.68
2018-03-19T03:05:22.815Z,-0.51
2018-03-19T03:07:51.128Z,-0.52
2018-03-19T03:10:20.188Z,-0.54
2018-03-19T03:12:48.445Z,-0.56
2018-03-19T03:15:16.726Z,-0.58
2018-03-19T03:17:44.987Z,-0.55
2018-03-19T03:20:13.262Z,-0.54
2018-03-19T03:22:41.565Z,-0.59
2018-03-19T03:25:09.841Z,-0.55
2018-03-19T03:27:38.098Z,-0.67
2018-03-19T03:30:06.381Z,-0.64
2018-03-19T03:32:34.659Z,-0.68
2018-03-19T03:35:02.929Z,-0.58
2018-03-19T03:37:31.204Z,-0.56
2018-03-19T03:39:59.486Z,-0.59
2018-03-19T03:42:27.757Z,-0.66
2018-03-19T03:44:56.021Z,-0.60
2018-03-19T03:47:24.297Z,-0.57
2018-03-19T03:49:52.748Z,-0.64
2018-03-19T03:52:21.290Z,-0.54
2018-03-19T03:54:50.313Z,-0.64
2018-03-19T03:57:19.434Z,-0.60
2018-03-19T03:59:47.810Z,-0.66
2018-03-19T04:02:16.257Z,-0.62
2018-03-19T04:04:44.619Z,-0.58
2018-03-19T04:07:12.859Z,-0.59
2018-03-19T04:09:41.133Z,-0.48
2018-03-19T04:12:09.405Z,-0.64
2018-03-19T04:14:37.713Z,-0.54
2018-03-19T04:17:06.792Z,-0.73
2018-03-19T04:19:36.055Z,-0.66
2018-03-19T04:22:04.449Z,-0.69
2018-03-19T04:24:32.729Z,-0.57
2018-03-19T04:27:01.082Z,-0.55
2018-03-19T04:29:29.340Z,-0.43
2018-03-19T04:31:57.603Z,-0.47
2018-03-19T04:34:25.876Z,-0.48
2018-03-19T04:36:54.926Z,-0.51
2018-03-19T04:39:23.172Z,-0.49
2018-03-19T04:41:51.459Z,-0.47
2018-03-19T04:44:19.948Z,-0.41
2018-03-19T04:46:48.907Z,-0.44
2018-03-19T04:49:17.242Z,-0.34
2018-03-19T04:51:45.516Z,-0.43
2018-03-19T04:54:13.821Z,-0.47
2018-03-19T04:56:42.919Z,-0.39
2018-03-19T04:59:11.187Z,-0.33
2018-03-19T05:01:39.457Z,-0.30
2018-03-19T05:04:08.544Z,-0.33
2018-03-19T05:06:37.573Z,-0.40
2018-03-19T05:09:05.862Z,-0.39
2018-03-19T05:11:34.159Z,-0.23
2018-03-19T05:14:02.461Z,-0.28
2018-03-19T05:16:31.502Z,-0.36
2018-03-19T05:18:59.794Z,-0.24
2018-03-19T05:21:28.087Z,-0.30
2018-03-19T05:23:56.341Z,-0.24
2018-03-19T05:26:24.631Z,-0.35
2018-03-19T05:28:52.928Z,-0.37
2018-03-19T05:31:22.140Z,-0.30
2018-03-19T05:33:50.446Z,-0.43
2018-03-19T05:36:18.719Z,-0.42
2018-03-19T05:38:47.128Z,-0.42
2018-03-19T05:41:15.928Z,-0.31
2018-03-19T05:43:44.365Z,-0.33
2018-03-19T05:46:12.639Z,-0.36
2018-03-19T05:48:41.070Z,-0.32
2018-03-19T05:51:10.113Z,-0.34
2018-03-19T05:53:38.437Z,-0.31
2018-03-19T05:56:07.688Z,-0.35
2018-03-19T05:58:36.029Z,-0.46
2018-03-19T06:01:04.285Z,-0.35
2018-03-19T06:03:33.336Z,-0.19
2018-03-19T06:06:01.666Z,-0.29
2018-03-19T06:08:30.707Z,-0.29
2018-03-19T06:10:59.067Z,-0.30
2018-03-19T06:13:28.590Z,-0.32
2018-03-19T06:15:56.901Z,-0.26
2018-03-19T06:18:25.291Z,-0.27
2018-03-19T06:20:54.368Z,-0.27
2018-03-19T06:23:22.614Z,-0.26
2018-03-19T06:25:50.919Z,-0.07
2018-03-19T06:28:19.380Z,-0.17
2018-03-19T06:30:47.713Z,-0.27
2018-03-19T06:33:16.011Z,-0.23
2018-03-19T06:35:44.292Z,-0.30
2018-03-19T06:38:12.564Z,-0.12
2018-03-19T06:40:40.946Z,-0.24
2018-03-19T06:43:09.242Z,-0.25
2018-03-19T06:45:38.432Z,-0.12
2018-03-19T06:48:06.724Z,-0.15
2018-03-19T06:50:35.124Z,-0.20
2018-03-19T06:53:07.786Z,-0.02
2018-03-19T06:55:36.892Z,-0.06
2018-03-19T06:58:06.181Z,0.02
2018-03-19T07:00:35.303Z,-0.14
2018-03-19T07:03:03.580Z,-0.11
2018-03-19T07:05:31.949Z,0.10
2018-03-19T07:08:01.190Z,0.00
2018-03-19T07:10:29.644Z,-0.04
2018-03-19T07:12:57.933Z,0.08
2018-03-19T07:15:26.224Z,0.08
2018-03-19T07:17:54.575Z,0.09
2018-03-19T07:20:22.826Z,0.18
2018-03-19T07:22:51.137Z,0.12
2018-03-19T07:25:19.581Z,0.30
2018-03-19T07:27:48.117Z,0.38
2018-03-19T07:30:16.397Z,0.24
2018-03-19T07:32:44.693Z,0.02
2018-03-19T07:35:13.741Z,0.06
2018-03-19T07:37:42.017Z,0.10
2018-03-19T07:40:10.321Z,0.04
2018-03-19T07:42:39.265Z,0.08
2018-03-19T07:45:07.753Z,0.04
2018-03-19T07:47:36.420Z,0.09
2018-03-19T07:50:04.771Z,0.15
2018-03-19T07:52:33.795Z,0.33
2018-03-19T07:55:02.172Z,0.01
2018-03-19T07:57:30.527Z,0.21
2018-03-19T08:00:00.328Z,0.27
2018-03-19T08:02:28.622Z,0.23
2018-03-19T08:04:56.903Z,0.24
2018-03-19T08:07:25.196Z,0.45
2018-03-19T08:09:53.576Z,0.52
2018-03-19T08:12:21.953Z,0.47
2018-03-19T08:14:50.163Z,0.37
2018-03-19T08:17:18.619Z,0.47
2018-03-19T08:19:46.898Z,0.49
2018-03-19T08:22:15.295Z,0.31
2018-03-19T08:24:43.659Z,0.15
2018-03-19T08:27:11.907Z,0.30
2018-03-19T08:29:40.194Z,0.55
2018-03-19T08:32:08.536Z,0.48
2018-03-19T08:34:36.881Z,0.46
2018-03-19T08:37:05.744Z,0.64
2018-03-19T08:39:34.006Z,0.71
2018-03-19T08:42:02.297Z,0.60
2018-03-19T08:44:30.563Z,0.57
2018-03-19T08:46:58.997Z,0.36
2018-03-19T08:49:28.021Z,0.42
2018-03-19T08:51:56.380Z,0.48
2018-03-19T08:54:24.623Z,0.64
2018-03-19T08:56:53.663Z,0.39
2018-03-19T08:59:21.935Z,0.36
2018-03-19T09:01:50.211Z,0.37
2018-03-19T09:04:18.550Z,0.29
2018-03-19T09:06:46.821Z,0.55
2018-03-19T09:09:15.858Z,0.56
2018-03-19T09:11:44.149Z,0.47
2018-03-19T09:14:12.467Z,0.49
2018-03-19T09:16:41.528Z,0.09
2018-03-19T09:19:09.785Z,0.48
2018-03-19T09:21:38.083Z,0.44
2018-03-19T09:24:06.350Z,0.73
2018-03-19T09:26:34.811Z,0.79
2018-03-19T09:29:03.140Z,0.88
2018-03-19T09:31:32.159Z,0.81
2018-03-19T09:34:00.442Z,1.09
2018-03-19T09:36:28.839Z,1.17
2018-03-19T09:38:57.306Z,0.98
2018-03-19T09:41:25.698Z,1.11
2018-03-19T09:43:54.174Z,1.13
2018-03-19T09:46:22.443Z,1.07
2018-03-19T09:48:50.735Z,0.99
2018-03-19T09:51:19.963Z,1.23
2018-03-19T09:53:48.989Z,1.15
2018-03-19T09:56:17.255Z,1.19
2018-03-19T09:58:45.679Z,1.21
2018-03-19T10:01:13.978Z,1.12
2018-03-19T10:03:42.315Z,1.45
2018-03-19T10:06:10.596Z,1.35
2018-03-19T10:08:38.873Z,1.46
2018-03-19T10:11:07.226Z,1.33
2018-03-19T10:13:35.471Z,1.44
2018-03-19T10:16:04.524Z,1.25
2018-03-19T10:18:32.977Z,1.37
2018-03-19T10:21:01.325Z,1.20
2018-03-19T10:23:30.466Z,1.48
2018-03-19T10:25:58.734Z,1.55
2018-03-19T10:28:27.027Z,1.56
2018-03-19T10:30:55.336Z,1.22
2018-03-19T10:33:24.521Z,0.98
2018-03-19T10:35:53.636Z,1.18
2018-03-19T10:38:23.401Z,1.17
2018-03-19T10:40:51.660Z,1.22
2018-03-19T10:43:19.902Z,1.42
2018-03-19T10:45:48.319Z,1.67
2018-03-19T10:48:17.374Z,1.77
2018-03-19T10:50:45.652Z,1.85
2018-03-19T10:53:13.933Z,1.92
2018-03-19T10:55:42.239Z,1.56
2018-03-19T10:58:10.503Z,1.64
2018-03-19T11:00:38.935Z,1.81
2018-03-19T11:03:07.968Z,1.76
2018-03-19T11:08:34.651Z,1.76
2018-03-19T11:11:03.685Z,2.17
2018-03-19T11:13:32.005Z,1.86
2018-03-19T11:16:01.033Z,2.05
2018-03-19T11:18:29.320Z,2.19
2018-03-19T11:20:57.651Z,1.97
2018-03-19T11:23:25.959Z,1.76
2018-03-19T11:25:54.215Z,1.99
2018-03-19T11:28:22.491Z,2.06
2018-03-19T11:30:50.952Z,2.19
2018-03-19T11:33:19.230Z,2.03
2018-03-19T11:35:47.492Z,2.01
2018-03-19T11:38:15.776Z,2.43
2018-03-19T11:40:44.058Z,2.74
2018-03-19T11:43:12.358Z,2.79
2018-03-19T11:45:40.641Z,2.69
2018-03-19T11:48:08.895Z,2.84
2018-03-19T11:50:37.869Z,2.88
2018-03-19T11:53:06.209Z,2.84
2018-03-19T11:55:35.442Z,2.73
2018-03-19T11:58:03.741Z,2.55
2018-03-19T12:00:32.019Z,2.12
2018-03-19T12:03:00.291Z,1.92
2018-03-19T12:05:28.665Z,2.20
2018-03-19T12:07:56.952Z,2.56
2018-03-19T12:10:25.356Z,2.76
2018-03-19T12:12:53.617Z,2.77
2018-03-19T12:15:21.952Z,2.67
2018-03-19T12:17:50.330Z,2.87
2018-03-19T12:20:18.609Z,2.76
2018-03-19T12:22:47.754Z,2.87
2018-03-19T12:25:16.009Z,2.99
2018-03-19T12:27:45.796Z,2.69
2018-03-19T12:30:14.228Z,2.72
2018-03-19T12:32:43.419Z,2.84
2018-03-19T12:35:12.657Z,3.00
2018-03-19T17:32:02.780Z,2.33
2018-03-19T17:34:32.364Z,2.30
2018-03-19T17:37:01.366Z,2.27
2018-03-19T17:39:30.050Z,2.27
2018-03-19T17:41:59.955Z,2.32
2018-03-19T17:44:28.818Z,2.24
2018-03-19T17:46:57.591Z,2.21
2018-03-19T17:49:26.529Z,2.22
2018-03-19T17:51:56.368Z,2.24
2018-03-19T17:54:26.162Z,2.21
2018-03-19T17:56:54.772Z,2.12
2018-03-19T17:59:23.765Z,2.13
2018-03-19T18:01:53.659Z,2.06
2018-03-19T18:04:23.214Z,2.00
2018-03-19T18:06:52.140Z,1.96
2018-03-19T18:09:20.867Z,1.96
2018-03-19T18:11:49.468Z,2.03
2018-03-19T18:14:18.263Z,2.09
2018-03-19T18:16:46.853Z,2.24
2018-03-19T18:19:15.631Z,2.21
2018-03-19T18:21:45.497Z,2.26
2018-03-19T18:24:14.291Z,2.23
2018-03-19T18:26:43.658Z,2.17
2018-03-19T18:29:12.630Z,2.18
2018-03-19T18:31:41.137Z,2.15
2018-03-19T18:34:09.563Z,2.13
2018-03-19T18:36:39.128Z,2.07
2018-03-19T18:39:09.151Z,2.11
2018-03-19T18:41:38.029Z,2.14
2018-03-19T18:44:07.219Z,2.08
2018-03-19T18:46:36.092Z,2.05
2018-03-19T18:49:05.068Z,2.01
2018-03-19T18:51:34.710Z,1.97
2018-03-19T18:54:03.612Z,1.96
2018-03-19T18:56:32.333Z,2.00
2018-03-19T18:59:01.132Z,1.98
2018-03-19T19:01:29.687Z,2.00
2018-03-19T19:03:58.464Z,2.01
2018-03-19T19:06:27.008Z,1.93
2018-03-19T19:08:56.089Z,1.85
2018-03-19T19:11:25.626Z,1.86
2018-03-19T19:13:54.319Z,1.85
2018-03-19T19:16:23.263Z,1.90
2018-03-19T19:18:52.857Z,1.95
2018-03-19T19:21:22.020Z,1.83
2018-03-19T19:23:51.903Z,1.75
2018-03-19T19:26:20.534Z,1.77
2018-03-19T19:28:49.780Z,1.70
2018-03-19T19:31:18.800Z,1.82
2018-03-19T19:33:53.924Z,1.74
2018-03-19T19:36:22.742Z,1.77
2018-03-19T19:38:52.192Z,1.91
2018-03-19T19:41:21.249Z,1.92
2018-03-19T19:43:49.873Z,1.92
2018-03-19T19:46:18.713Z,1.97
2018-03-19T19:48:48.460Z,1.75
2018-03-19T19:51:17.349Z,1.79
2018-03-19T19:53:47.090Z,1.60
2018-03-19T19:56:16.963Z,1.60
2018-03-19T19:58:45.673Z,1.56
2018-03-19T20:01:14.585Z,1.64
2018-03-19T20:03:43.045Z,1.70
2018-03-19T20:06:12.223Z,1.76
2018-03-19T20:08:40.663Z,1.61
2018-03-19T20:14:09.629Z,1.40
2018-03-19T20:16:39.220Z,1.40
2018-03-19T20:19:07.751Z,1.52
2018-03-19T20:21:36.778Z,1.33
2018-03-19T20:24:10.233Z,1.42
2018-03-19T20:26:39.192Z,1.46
2018-03-19T20:29:08.066Z,1.37
2018-03-19T20:31:36.998Z,1.38
2018-03-19T20:34:06.475Z,1.38
2018-03-19T20:36:38.489Z,1.17
2018-03-19T20:39:07.765Z,1.37
2018-03-19T20:41:36.708Z,1.29
2018-03-19T20:44:05.796Z,1.31
2018-03-19T20:46:34.749Z,1.48
2018-03-19T20:49:03.390Z,1.45
2018-03-19T20:51:32.338Z,1.53
2018-03-19T20:54:00.872Z,1.55
2018-03-19T20:56:30.452Z,1.32
2018-03-19T20:58:59.240Z,1.56
2018-03-19T21:01:28.511Z,1.27
2018-03-19T21:03:57.095Z,1.36
2018-03-19T21:06:25.676Z,1.12
2018-03-19T21:08:54.230Z,1.33
2018-03-19T21:11:23.995Z,1.37
2018-03-19T21:13:53.116Z,1.23
2018-03-19T21:16:22.351Z,1.47
2018-03-19T21:18:50.695Z,1.48
2018-03-19T21:21:19.168Z,1.36
2018-03-19T21:23:47.541Z,1.46
2018-03-19T21:26:16.106Z,1.08
2018-03-19T21:28:45.070Z,1.09
2018-03-19T21:31:13.456Z,1.22
2018-03-19T21:33:42.132Z,1.13
2018-03-19T21:36:10.962Z,1.14
2018-03-19T21:38:39.284Z,1.28
2018-03-19T21:41:07.620Z,1.37
2018-03-19T21:43:36.701Z,1.19
2018-03-19T21:46:05.438Z,1.42
2018-03-19T21:48:33.751Z,1.18
2018-03-19T21:51:02.059Z,1.18
2018-03-19T21:53:30.395Z,0.94
2018-03-19T21:55:58.776Z,0.90
2018-03-19T21:58:28.002Z,0.79
2018-03-19T22:00:57.332Z,0.84
2018-03-19T22:03:25.989Z,0.84
2018-03-19T22:05:55.089Z,1.17
2018-03-19T22:08:23.916Z,0.90
2018-03-19T22:10:52.740Z,0.84
2018-03-19T22:13:22.191Z,0.91
2018-03-19T22:15:51.472Z,0.62
2018-03-19T22:18:19.777Z,0.72
2018-03-19T22:20:48.872Z,0.77
2018-03-19T22:23:17.237Z,0.75
2018-03-19T22:25:46.483Z,0.60
2018-03-19T22:28:14.780Z,0.64
2018-03-19T22:30:43.096Z,0.74
2018-03-19T22:33:11.402Z,0.52
2018-03-19T22:35:40.475Z,0.54
2018-03-19T22:38:08.921Z,0.54
2018-03-19T22:40:38.758Z,0.58
2018-03-19T22:43:07.242Z,0.48
2018-03-19T22:45:35.536Z,0.34
2018-03-19T22:48:04.128Z,0.35
2018-03-19T22:50:33.420Z,0.29
2018-03-19T22:53:01.816Z,0.34
2018-03-19T22:55:32.042Z,0.44
2018-03-19T22:58:00.473Z,0.25
2018-03-19T23:00:28.867Z,0.29
2018-03-19T23:02:58.216Z,0.24
2018-03-19T23:05:30.510Z,0.19
2018-03-19T23:08:08.660Z,0.16
2018-03-19T23:10:36.944Z,0.18
2018-03-19T23:13:05.618Z,0.03
2018-03-19T23:15:34.321Z,0.13
2018-03-19T23:18:02.963Z,0.07
2018-03-19T23:20:32.402Z,0.18
2018-03-19T23:23:00.701Z,0.03
2018-03-19T23:25:29.193Z,-0.01
2018-03-19T23:27:58.233Z,-0.11
2018-03-19T23:30:26.855Z,-0.13
2018-03-19T23:32:55.396Z,-0.13
2018-03-19T23:35:23.685Z,-0.14
2018-03-19T23:37:52.113Z,-0.13
2018-03-19T23:40:21.491Z,-0.16
2018-03-19T23:42:49.751Z,-0.07
2018-03-19T23:45:18.120Z,0.03
2018-03-19T23:47:46.600Z,-0.05
2018-03-19T23:50:14.936Z,-0.03
2018-03-19T23:52:43.405Z,-0.08
2018-03-19T23:55:12.186Z,0.10
2018-03-19T23:57:41.552Z,0.20
